createdAt,value
2022-09-20T00:01:36.125Z,0.70
2022-09-20T00:04:05.727Z,0.60
2022-09-20T00:06:35.426Z,0.47
2022-09-20T00:09:03.593Z,0.60
2022-09-20T00:11:34.485Z,0.40
2022-09-20T00:14:06.207Z,0.50
2022-09-20T00:16:39.494Z,0.57
2022-09-20T00:19:09.099Z,0.63
2022-09-20T00:21:37.946Z,0.40
2022-09-20T00:24:06.338Z,0.30
2022-09-20T00:26:34.079Z,0.83
2022-09-20T00:29:01.712Z,0.50
2022-09-20T00:31:29.469Z,0.40
2022-09-20T00:34:17.008Z,0.50
2022-09-20T00:36:45.436Z,0.80
2022-09-20T00:39:16.262Z,0.80
2022-09-20T00:41:44.408Z,0.57
2022-09-20T00:45:09.425Z,0.53
2022-09-20T00:48:14.405Z,0.70
2022-09-20T00:51:08.543Z,0.40
2022-09-20T00:53:42.302Z,0.60
2022-09-20T00:56:29.332Z,0.63
2022-09-20T00:59:14.838Z,0.60
2022-09-20T01:01:46.953Z,0.50
2022-09-20T01:04:16.798Z,0.50
2022-09-20T01:06:46.356Z,0.67
2022-09-20T01:09:15.511Z,1.10
2022-09-20T01:11:42.877Z,1.17
2022-09-20T01:14:12.909Z,0.47
2022-09-20T01:16:40.400Z,0.77
2022-09-20T01:19:48.664Z,0.37
2022-09-20T01:22:26.932Z,0.43
2022-09-20T01:25:26.362Z,0.27
2022-09-20T01:27:55.887Z,0.33
2022-09-20T01:30:30.473Z,0.40
2022-09-20T01:33:26.144Z,0.60
2022-09-20T01:35:57.218Z,0.67
2022-09-20T01:38:46.875Z,0.60
2022-09-20T01:41:51.895Z,0.97
2022-09-20T01:45:04.989Z,0.50
2022-09-20T01:48:04.854Z,0.80
2022-09-20T01:51:11.256Z,0.63
2022-09-20T01:53:56.711Z,0.87
2022-09-20T01:57:06.757Z,0.57
2022-09-20T02:00:07.393Z,0.53
2022-09-20T02:03:19.329Z,0.37
2022-09-20T02:06:32.176Z,1.13
2022-09-20T02:09:08.263Z,0.50
2022-09-20T02:12:14.355Z,0.30
2022-09-20T02:15:10.731Z,0.80
2022-09-20T02:18:17.691Z,0.67
2022-09-20T02:20:48.031Z,0.30
2022-09-20T02:23:52.741Z,0.73
2022-09-20T02:26:56.529Z,0.70
2022-09-20T02:30:13.383Z,1.20
2022-09-20T02:33:07.373Z,0.77
2022-09-20T02:35:56.523Z,0.57
2022-09-20T02:39:00.374Z,0.67
2022-09-20T02:42:01.699Z,0.47
2022-09-20T02:45:02.944Z,0.30
2022-09-20T02:47:40.731Z,0.80
2022-09-20T02:50:45.741Z,0.20
2022-09-20T02:53:51.005Z,0.30
2022-09-20T02:56:47.393Z,0.30
2022-09-20T02:59:25.859Z,0.40
2022-09-20T03:02:29.755Z,0.40
2022-09-20T03:05:13.126Z,0.30
2022-09-20T03:08:11.824Z,0.20
2022-09-20T03:11:31.510Z,0.47
2022-09-20T03:14:27.815Z,0.20
2022-09-20T03:17:22.203Z,0.40
2022-09-20T03:19:52.856Z,0.10
2022-09-20T03:22:39.596Z,0.30
2022-09-20T03:25:18.528Z,0.50
2022-09-20T03:28:25.594Z,0.10
2022-09-20T03:31:30.620Z,0.30
2022-09-20T03:34:32.462Z,0.40
2022-09-20T03:37:22.460Z,0.53
2022-09-20T03:40:17.863Z,0.40
2022-09-20T03:42:52.991Z,0.20
2022-09-20T03:46:04.359Z,0.17
2022-09-20T03:49:17.853Z,0.20
2022-09-20T03:52:16.095Z,0.40
2022-09-20T03:55:16.372Z,0.33
2022-09-20T03:57:58.907Z,0.40
2022-09-20T04:00:53.278Z,0.30
2022-09-20T04:03:51.138Z,0.50
2022-09-20T04:06:43.036Z,0.50
2022-09-20T04:09:34.353Z,0.73
2022-09-20T04:12:22.726Z,0.60
2022-09-20T04:15:00.668Z,3.93
2022-09-20T04:17:36.494Z,4.13
2022-09-20T04:20:32.311Z,1.53
2022-09-20T04:23:15.503Z,0.50
2022-09-20T04:25:48.579Z,0.70
2022-09-20T04:28:26.265Z,0.50
2022-09-20T04:31:02.899Z,0.40
2022-09-20T04:33:43.098Z,0.47
2022-09-20T04:37:06.306Z,0.30
2022-09-20T04:39:44.265Z,1.17
2022-09-20T04:42:32.756Z,0.70
2022-09-20T04:45:45.903Z,0.30
2022-09-20T04:48:52.584Z,0.67
2022-09-20T04:51:58.228Z,0.50
2022-09-20T04:55:00.129Z,0.60
2022-09-20T04:58:00.892Z,0.37
2022-09-20T05:01:17.066Z,0.80
2022-09-20T05:04:14.877Z,0.20
2022-09-20T05:07:11.844Z,0.60
2022-09-20T05:09:54.713Z,0.30
2022-09-20T05:12:34.690Z,0.33
2022-09-20T05:15:25.808Z,0.23
2022-09-20T05:18:39.683Z,0.50
2022-09-20T05:21:35.579Z,0.40
2022-09-20T05:24:34.976Z,0.10
2022-09-20T05:27:08.191Z,0.53
2022-09-20T05:30:07.771Z,0.47
2022-09-20T05:33:15.783Z,0.80
2022-09-20T05:35:55.949Z,0.40
2022-09-20T05:38:44.110Z,0.70
2022-09-20T05:41:43.321Z,0.50
2022-09-20T05:44:57.579Z,0.57
2022-09-20T05:47:53.860Z,0.73
2022-09-20T05:51:03.734Z,0.80
2022-09-20T05:53:49.103Z,1.00
2022-09-20T05:56:40.605Z,1.50
2022-09-20T05:59:49.910Z,1.20
2022-09-20T06:02:35.189Z,1.60
2022-09-20T06:05:34.973Z,1.13
2022-09-20T06:08:05.270Z,1.10
2022-09-20T06:11:01.594Z,0.87
2022-09-20T06:13:59.833Z,1.10
2022-09-20T06:17:25.093Z,1.43
2022-09-20T06:20:39.511Z,1.20
2022-09-20T06:23:10.246Z,0.87
2022-09-20T06:25:47.803Z,2.20
2022-09-20T06:28:22.607Z,2.97
2022-09-20T06:30:56.223Z,1.43
2022-09-20T06:33:26.280Z,1.30
2022-09-20T06:36:37.616Z,1.53
2022-09-20T06:39:26.107Z,0.70
2022-09-20T06:41:54.235Z,0.90
2022-09-20T06:44:21.411Z,1.20
2022-09-20T06:46:49.008Z,0.93
2022-09-20T06:49:16.239Z,1.17
2022-09-20T06:51:43.775Z,0.90
2022-09-20T06:54:18.875Z,0.90
2022-09-20T06:56:49.066Z,0.97
2022-09-20T06:59:16.432Z,0.77
2022-09-20T07:01:44.285Z,0.60
2022-09-20T07:04:11.561Z,0.90
2022-09-20T07:06:40.106Z,1.10
2022-09-20T07:09:07.558Z,2.10
2022-09-20T07:11:35.191Z,1.33
2022-09-20T07:14:03.134Z,0.50
2022-09-20T07:16:30.385Z,0.70
2022-09-20T07:18:57.929Z,0.87
2022-09-20T07:21:25.535Z,0.83
2022-09-20T07:23:54.096Z,0.80
2022-09-20T07:26:28.600Z,0.63
2022-09-20T07:28:58.557Z,0.77
2022-09-20T07:31:28.628Z,0.80
2022-09-20T07:33:56.404Z,0.83
2022-09-20T07:36:23.892Z,0.30
2022-09-20T07:38:53.280Z,0.83
2022-09-20T07:41:23.156Z,0.80
2022-09-20T07:43:51.384Z,1.10
2022-09-20T07:46:20.205Z,0.67
2022-09-20T07:48:47.653Z,0.80
2022-09-20T07:51:15.177Z,0.63
2022-09-20T07:53:42.383Z,0.83
2022-09-20T07:56:19.051Z,0.77
2022-09-20T07:58:52.185Z,1.63
2022-09-20T08:01:22.871Z,0.93
2022-09-20T08:03:51.899Z,0.90
2022-09-20T08:06:21.528Z,0.43
2022-09-20T08:08:49.468Z,0.90
2022-09-20T08:11:21.656Z,0.80
2022-09-20T08:14:08.528Z,1.00
2022-09-20T08:16:43.204Z,0.83
2022-09-20T08:19:20.656Z,0.70
2022-09-20T08:21:50.225Z,0.40
2022-09-20T08:24:19.156Z,1.07
2022-09-20T08:26:46.876Z,0.40
2022-09-20T08:29:15.400Z,0.57
2022-09-20T08:31:43.305Z,0.53
2022-09-20T08:34:14.201Z,0.67
2022-09-20T08:36:47.349Z,0.97
2022-09-20T08:42:14.015Z,0.40
2022-09-20T08:44:59.309Z,0.60
2022-09-20T08:47:36.770Z,0.43
2022-09-20T08:50:10.369Z,0.63
2022-09-20T08:52:41.000Z,0.83
2022-09-20T08:55:21.251Z,0.43
2022-09-20T08:57:55.662Z,1.67
2022-09-20T09:00:32.727Z,1.00
2022-09-20T09:03:07.536Z,0.63
2022-09-20T09:05:55.405Z,0.70
2022-09-20T09:08:31.101Z,0.60
2022-09-20T09:11:09.708Z,0.60
2022-09-20T09:14:02.577Z,1.30
2022-09-20T09:16:36.272Z,0.60
2022-09-20T09:19:42.793Z,1.10
2022-09-20T09:22:10.495Z,0.50
2022-09-20T09:24:37.648Z,0.77
2022-09-20T09:27:20.330Z,1.17
2022-09-20T09:29:56.143Z,2.07
2022-09-20T09:32:31.180Z,1.90
2022-09-20T09:35:29.351Z,0.87
2022-09-20T09:38:02.406Z,0.50
2022-09-20T09:40:32.658Z,0.43
2022-09-20T09:43:03.369Z,0.80
2022-09-20T09:45:38.950Z,0.87
2022-09-20T09:48:32.567Z,0.57
2022-09-20T09:51:16.198Z,0.50
2022-09-20T09:53:45.923Z,0.30
2022-09-20T09:56:37.140Z,0.30
2022-09-20T09:59:52.255Z,0.43
2022-09-20T10:02:48.234Z,0.70
2022-09-20T10:05:28.027Z,0.47
2022-09-20T10:08:31.302Z,0.40
2022-09-20T10:11:15.921Z,0.53
2022-09-20T10:14:13.301Z,0.63
2022-09-20T10:17:19.401Z,0.63
2022-09-20T10:20:33.753Z,0.30
2022-09-20T10:23:44.981Z,0.20
2022-09-20T10:26:30.584Z,0.20
2022-09-20T10:29:26.315Z,2.33
2022-09-20T10:32:15.556Z,0.33
2022-09-20T10:35:14.481Z,0.20
2022-09-20T10:38:23.614Z,0.33
2022-09-20T10:41:24.296Z,0.10
2022-09-20T10:44:18.908Z,0.30
2022-09-20T10:47:11.026Z,0.40
2022-09-20T10:50:00.671Z,0.10
2022-09-20T10:53:17.495Z,0.10
2022-09-20T10:56:26.087Z,0.50
2022-09-20T10:59:40.671Z,0.40
2022-09-20T11:02:46.330Z,0.10
2022-09-20T11:05:53.509Z,0.10
2022-09-20T11:08:26.699Z,0.73
2022-09-20T11:11:00.276Z,0.00
2022-09-20T11:13:50.509Z,0.10
2022-09-20T11:16:23.487Z,0.30
2022-09-20T11:19:04.588Z,0.20
2022-09-20T11:21:48.640Z,0.10
2022-09-20T11:24:22.539Z,0.30
2022-09-20T11:26:58.715Z,0.20
2022-09-20T11:29:50.286Z,0.40
2022-09-20T11:32:46.326Z,0.27
2022-09-20T11:35:23.782Z,0.10
2022-09-20T11:38:18.181Z,0.10
2022-09-20T11:40:56.574Z,0.63
2022-09-20T11:43:29.254Z,0.00
2022-09-20T11:46:04.693Z,0.20
2022-09-20T11:48:45.947Z,0.00
2022-09-20T11:51:48.649Z,0.10
2022-09-20T11:54:49.660Z,0.03
2022-09-20T11:57:17.180Z,0.10
2022-09-20T11:59:55.967Z,0.20
2022-09-20T12:03:04.333Z,0.20
2022-09-20T12:05:41.644Z,0.00
2022-09-20T12:08:25.917Z,0.10
2022-09-20T12:11:07.245Z,0.03
2022-09-20T12:13:43.128Z,0.10
2022-09-20T12:16:37.770Z,0.10
2022-09-20T12:19:10.867Z,0.03
2022-09-20T12:22:04.205Z,0.20
2022-09-20T12:24:44.564Z,0.10
2022-09-20T12:27:41.902Z,0.20
2022-09-20T12:30:22.137Z,0.00
2022-09-20T12:32:58.228Z,0.50
2022-09-20T12:35:39.071Z,0.33
2022-09-20T12:38:21.775Z,0.10
2022-09-20T12:41:10.508Z,0.20
2022-09-20T12:44:02.319Z,0.00
2022-09-20T12:46:50.081Z,0.13
2022-09-20T12:49:48.248Z,0.43
2022-09-20T12:52:55.682Z,0.10
2022-09-20T12:55:38.632Z,0.10
2022-09-20T12:58:14.593Z,0.13
2022-09-20T13:00:54.445Z,0.20
2022-09-20T13:03:29.789Z,0.40
2022-09-20T13:06:15.792Z,0.17
2022-09-20T13:09:00.948Z,0.20
2022-09-20T13:11:55.172Z,0.20
2022-09-20T13:14:31.752Z,0.20
2022-09-20T13:17:27.453Z,0.23
2022-09-20T13:19:56.470Z,0.33
2022-09-20T13:22:37.949Z,0.27
2022-09-20T13:25:07.753Z,0.20
2022-09-20T13:27:45.610Z,0.13
2022-09-20T13:30:26.941Z,0.13
2022-09-20T13:32:55.238Z,0.10
2022-09-20T13:35:29.519Z,0.10
2022-09-20T13:38:09.878Z,0.00
2022-09-20T13:40:42.417Z,0.10
2022-09-20T13:43:42.684Z,0.17
2022-09-20T13:46:18.555Z,0.37
2022-09-20T13:48:59.573Z,0.10
2022-09-20T13:51:28.762Z,0.13
2022-09-20T13:54:29.851Z,0.40
2022-09-20T13:57:04.398Z,0.20
2022-09-20T13:59:40.796Z,0.20
2022-09-20T14:02:32.279Z,0.30
2022-09-20T14:05:07.729Z,0.23
2022-09-20T14:07:37.020Z,0.03
2022-09-20T14:10:05.329Z,0.10
2022-09-20T14:12:34.017Z,0.50
2022-09-20T14:15:09.931Z,0.60
2022-09-20T14:17:37.979Z,0.20
2022-09-20T14:20:06.877Z,0.73
2022-09-20T14:22:34.519Z,0.67
2022-09-20T14:25:15.274Z,0.47
2022-09-20T14:27:42.908Z,1.37
2022-09-20T14:30:36.400Z,0.40
2022-09-20T14:33:07.367Z,0.30
2022-09-20T14:35:34.574Z,0.33
2022-09-20T14:38:26.805Z,0.30
2022-09-20T14:40:54.791Z,0.70
2022-09-20T14:43:34.701Z,0.40
2022-09-20T14:46:17.323Z,0.40
2022-09-20T14:48:45.666Z,0.20
2022-09-20T14:51:28.037Z,0.30
2022-09-20T14:54:08.121Z,0.33
2022-09-20T14:56:44.423Z,0.43
2022-09-20T14:59:17.475Z,0.40
2022-09-20T15:01:54.600Z,0.20
2022-09-20T15:04:25.554Z,0.20
2022-09-20T15:06:53.223Z,0.20
2022-09-20T15:09:22.046Z,0.10
2022-09-20T15:12:01.558Z,0.10
2022-09-20T15:14:31.792Z,0.30
2022-09-20T15:17:01.966Z,0.50
2022-09-20T15:19:30.735Z,0.20
2022-09-20T15:21:59.409Z,0.20
2022-09-20T15:24:27.202Z,0.50
2022-09-20T15:26:55.066Z,0.20
2022-09-20T15:29:22.689Z,0.13
2022-09-20T15:31:50.660Z,0.20
2022-09-20T15:34:18.934Z,0.10
2022-09-20T15:36:46.784Z,0.23
2022-09-20T15:39:13.887Z,0.50
2022-09-20T15:41:41.635Z,0.10
2022-09-20T15:44:08.715Z,0.20
2022-09-20T15:46:36.795Z,0.10
2022-09-20T15:49:09.000Z,0.10
2022-09-20T15:51:37.434Z,0.20
2022-09-20T15:54:07.740Z,0.30
2022-09-20T15:56:40.505Z,0.20
2022-09-20T15:59:11.176Z,0.33
2022-09-20T16:01:42.570Z,0.10
2022-09-20T16:04:17.377Z,0.00
2022-09-20T16:06:47.561Z,0.40
2022-09-20T16:09:15.106Z,0.37
2022-09-20T16:11:42.533Z,0.23
2022-09-20T16:14:10.253Z,0.40
2022-09-20T16:16:40.312Z,0.33
2022-09-20T16:19:17.634Z,0.30
2022-09-20T16:21:58.986Z,0.20
2022-09-20T16:24:34.100Z,0.13
2022-09-20T16:27:06.340Z,0.90
2022-09-20T16:29:34.588Z,0.00
2022-09-20T16:32:04.346Z,0.20
2022-09-20T16:34:35.241Z,0.47
2022-09-20T16:37:12.014Z,0.40
2022-09-20T16:39:40.638Z,0.20
2022-09-20T16:42:09.157Z,0.87
2022-09-20T16:44:40.199Z,0.37
2022-09-20T16:47:18.264Z,0.50
2022-09-20T16:49:48.715Z,0.60
2022-09-20T16:52:16.245Z,0.30
2022-09-20T16:54:43.844Z,0.27
2022-09-20T16:57:15.650Z,0.50
2022-09-20T16:59:43.162Z,0.60
2022-09-20T17:02:13.290Z,0.57
2022-09-20T17:04:41.983Z,0.60
2022-09-20T17:07:09.582Z,0.70
2022-09-20T17:09:37.130Z,12.93
2022-09-20T17:12:06.863Z,4.87
2022-09-20T17:14:34.449Z,1.07
2022-09-20T17:17:01.969Z,1.40
2022-09-20T17:19:30.950Z,0.87
2022-09-20T17:22:00.307Z,0.50
2022-09-20T17:24:30.300Z,1.00
2022-09-20T17:26:57.809Z,0.80
2022-09-20T17:29:25.972Z,0.87
2022-09-20T17:31:56.695Z,1.30
2022-09-20T17:34:26.500Z,0.87
2022-09-20T17:36:55.493Z,1.13
2022-09-20T17:39:23.461Z,1.20
2022-09-20T17:41:51.992Z,1.10
2022-09-20T17:44:19.841Z,1.07
2022-09-20T17:46:50.159Z,1.27
2022-09-20T17:49:22.274Z,1.50
2022-09-20T17:51:54.781Z,1.33
2022-09-20T17:54:23.583Z,0.97
2022-09-20T17:56:56.393Z,1.20
2022-09-20T17:59:28.252Z,0.90
2022-09-20T18:01:57.708Z,1.70
2022-09-20T18:04:26.415Z,1.80
2022-09-20T18:06:58.276Z,1.73
2022-09-20T18:09:28.175Z,1.90
2022-09-20T18:12:03.192Z,2.50
2022-09-20T18:14:33.156Z,1.77
2022-09-20T18:17:02.030Z,1.47
2022-09-20T18:19:34.582Z,2.87
2022-09-20T18:22:07.948Z,2.33
2022-09-20T18:24:36.830Z,2.73
2022-09-20T18:27:05.925Z,1.60
2022-09-20T18:29:39.926Z,1.83
2022-09-20T18:32:09.050Z,1.50
2022-09-20T18:34:37.447Z,1.47
2022-09-20T18:37:16.203Z,1.30
2022-09-20T18:39:45.472Z,2.10
2022-09-20T18:42:14.501Z,0.80
2022-09-20T18:44:46.889Z,1.07
2022-09-20T18:47:14.734Z,1.23
2022-09-20T18:49:43.257Z,1.87
2022-09-20T18:52:16.012Z,1.17
2022-09-20T18:54:44.925Z,1.57
2022-09-20T18:57:13.578Z,0.93
2022-09-20T18:59:54.147Z,1.40
2022-09-20T19:02:59.025Z,0.77
2022-09-20T19:06:07.194Z,1.73
2022-09-20T19:08:53.102Z,1.40
2022-09-20T19:11:48.428Z,1.53
2022-09-20T19:15:15.941Z,1.10
2022-09-20T19:18:24.881Z,1.57
2022-09-20T19:21:27.157Z,1.30
2022-09-20T19:24:15.561Z,1.17
2022-09-20T19:26:44.284Z,1.50
2022-09-20T19:29:19.228Z,2.03
2022-09-20T19:31:54.635Z,1.67
2022-09-20T19:34:28.444Z,1.57
2022-09-20T19:37:37.879Z,1.77
2022-09-20T19:40:48.814Z,0.97
2022-09-20T19:43:49.493Z,1.53
2022-09-20T19:46:36.947Z,1.63
2022-09-20T19:49:16.805Z,1.73
2022-09-20T19:51:45.576Z,1.07
2022-09-20T19:54:15.109Z,1.63
2022-09-20T19:56:57.349Z,0.80
2022-09-20T19:59:27.424Z,1.13
2022-09-20T20:01:56.531Z,1.27
2022-09-20T20:04:24.466Z,1.10
2022-09-20T20:07:02.470Z,1.07
2022-09-20T20:10:32.487Z,1.00
2022-09-20T20:13:43.548Z,1.43
2022-09-20T20:16:22.238Z,1.73
2022-09-20T20:19:35.569Z,1.47
2022-09-20T20:22:29.579Z,1.23
2022-09-20T20:24:57.525Z,1.40
2022-09-20T20:27:28.337Z,1.67
2022-09-20T20:29:56.320Z,1.60
2022-09-20T20:32:24.144Z,2.80
2022-09-20T20:34:51.678Z,1.27
2022-09-20T20:37:19.115Z,1.73
2022-09-20T20:39:46.774Z,1.70
2022-09-20T20:42:15.127Z,1.50
2022-09-20T20:44:42.806Z,2.17
2022-09-20T20:47:10.454Z,2.50
2022-09-20T20:49:37.925Z,2.33
2022-09-20T20:52:05.910Z,2.10
2022-09-20T20:54:33.681Z,1.60
2022-09-20T20:57:03.368Z,2.50
2022-09-20T20:59:31.108Z,2.13
2022-09-20T21:01:58.626Z,2.00
2022-09-20T21:04:27.580Z,2.57
2022-09-20T21:06:55.129Z,2.73
2022-09-20T21:09:22.664Z,2.40
2022-09-20T21:11:50.104Z,2.27
2022-09-20T21:14:17.893Z,2.97
2022-09-20T21:16:45.641Z,1.80
2022-09-20T21:19:15.675Z,1.40
2022-09-20T21:21:46.340Z,1.10
2022-09-20T21:24:17.443Z,1.00
2022-09-20T21:26:48.921Z,1.00
2022-09-20T21:29:17.058Z,2.07
2022-09-20T21:31:47.012Z,1.70
2022-09-20T21:34:16.434Z,1.63
2022-09-20T21:36:44.906Z,1.93
2022-09-20T21:39:12.783Z,1.07
2022-09-20T21:41:41.179Z,2.53
2022-09-20T21:44:12.308Z,1.63
2022-09-20T21:46:42.139Z,1.87
2022-09-20T21:49:14.260Z,1.40
2022-09-20T21:51:43.101Z,1.60
2022-09-20T21:54:11.344Z,1.60
2022-09-20T21:56:40.397Z,2.07
2022-09-20T21:59:08.164Z,1.43
2022-09-20T22:01:40.332Z,2.10
2022-09-20T22:04:12.455Z,1.00
2022-09-20T22:06:42.863Z,1.97
2022-09-20T22:09:16.260Z,1.60
2022-09-20T22:11:49.046Z,1.30
2022-09-20T22:14:19.277Z,1.37
2022-09-20T22:16:48.964Z,1.07
2022-09-20T22:19:18.062Z,1.40
2022-09-20T22:21:49.571Z,1.80
2022-09-20T22:24:17.982Z,1.63
2022-09-20T22:26:50.834Z,1.70
2022-09-20T22:29:18.633Z,1.87
2022-09-20T22:31:48.700Z,2.37
2022-09-20T22:34:24.812Z,2.17
2022-09-20T22:36:52.523Z,2.47
2022-09-20T22:39:20.154Z,2.90
2022-09-20T22:41:50.351Z,2.23
2022-09-20T22:44:18.030Z,2.00
2022-09-20T22:46:45.578Z,1.50
2022-09-20T22:49:13.321Z,2.37
2022-09-20T22:51:40.767Z,3.07
2022-09-20T22:54:10.982Z,2.73
2022-09-20T22:56:41.548Z,2.13
2022-09-20T22:59:14.541Z,2.37
2022-09-20T23:01:45.400Z,2.00
2022-09-20T23:04:19.109Z,3.10
2022-09-20T23:06:56.352Z,2.50
2022-09-20T23:09:28.233Z,2.33
2022-09-20T23:11:55.808Z,2.23
2022-09-20T23:14:23.736Z,1.60
2022-09-20T23:16:51.481Z,2.40
2022-09-20T23:19:19.041Z,1.77
2022-09-20T23:21:46.932Z,1.20
2022-09-20T23:24:16.640Z,2.30
2022-09-20T23:26:44.797Z,1.23
2022-09-20T23:29:15.504Z,1.73
2022-09-20T23:31:46.378Z,1.17
2022-09-20T23:34:16.630Z,1.70
2022-09-20T23:36:45.133Z,1.57
2022-09-20T23:39:14.620Z,1.90
2022-09-20T23:41:45.781Z,1.47
2022-09-20T23:44:16.095Z,1.57
2022-09-20T23:46:43.548Z,1.70
2022-09-20T23:49:11.072Z,2.00
2022-09-20T23:51:38.629Z,1.97
2022-09-20T23:54:06.411Z,1.57
2022-09-20T23:56:34.131Z,1.57
2022-09-20T23:59:01.610Z,1.17
